Time;durP1;ratioP1;P1;durP2;ratioP2;P2;SDS_P1;SDS_P2;PMS_P1;PMS_P2;Temp;Humidity;BMP_temperature;BMP_pressure;BME280_temperature;BME280_humidity;BME280_pressure;Samples;Min_cycle;Max_cycle;Signal;HPM_P1;HPM_P2
2022/12/29 00:00:17;;;;;;;3.50;2.43;;;8.20;99.90;;;;;;5035302;28;20547;-67
2022/12/29 00:02:44;;;;;;;2.53;2.20;;;8.30;99.90;;;;;;5035281;28;20490;-68
2022/12/29 00:05:12;;;;;;;2.53;2.20;;;8.30;99.90;;;;;;5035554;28;20539;-67
2022/12/29 00:07:39;;;;;;;3.23;2.30;;;8.30;99.90;;;;;;5035356;28;20973;-68
2022/12/29 00:10:07;;;;;;;3.23;2.33;;;8.30;99.90;;;;;;5034402;28;20460;-67
2022/12/29 00:17:59;;;;;;;2.90;1.80;;;8.40;99.90;;;;;;5034752;28;20412;-67
2022/12/29 00:36:58;;;;;;;2.10;1.73;;;8.60;99.90;;;;;;5034673;28;20799;-68
2022/12/29 00:44:59;;;;;;;2.53;2.00;;;8.50;99.90;;;;;;4997912;28;20438;-67
2022/12/29 00:47:26;;;;;;;2.30;1.90;;;8.50;99.90;;;;;;5017911;28;20471;-68
2022/12/29 00:49:52;;;;;;;2.03;1.83;;;8.60;99.90;;;;;;5017970;28;20457;-68
2022/12/29 00:52:20;;;;;;;3.20;2.03;;;8.60;99.90;;;;;;5017611;28;20958;-68
2022/12/29 00:54:47;;;;;;;3.70;2.33;;;8.60;99.90;;;;;;5018561;28;20202;-67
2022/12/29 00:57:14;;;;;;;2.43;2.10;;;8.60;99.90;;;;;;5017885;28;20463;-68
2022/12/29 00:59:42;;;;;;;3.37;2.27;;;8.60;99.90;;;;;;5018030;28;20503;-68
2022/12/29 01:02:10;;;;;;;2.87;1.90;;;8.60;99.90;;;;;;5017921;28;20461;-67
2022/12/29 01:04:37;;;;;;;4.53;2.37;;;8.60;99.90;;;;;;5017979;28;20456;-68
2022/12/29 01:07:04;;;;;;;2.60;2.10;;;8.60;99.90;;;;;;5017761;28;20490;-67
2022/12/29 01:12:39;;;;;;;2.43;1.90;;;8.50;99.90;;;;;;5017620;28;20484;-68
2022/12/29 01:15:04;;;;;;;2.00;1.80;;;8.60;99.90;;;;;;5016957;28;20910;-67
2022/12/29 01:17:31;;;;;;;2.97;1.80;;;8.50;99.90;;;;;;5017419;28;20457;-69
2022/12/29 01:19:58;;;;;;;2.20;2.00;;;8.50;99.90;;;;;;5017330;28;20467;-68
2022/12/29 01:22:25;;;;;;;2.20;2.00;;;8.50;99.90;;;;;;5017241;28;20532;-66
2022/12/29 01:24:53;;;;;;;5.20;1.63;;;8.50;99.90;;;;;;5017038;28;20457;-67
2022/12/29 01:27:20;;;;;;;2.33;1.73;;;8.50;99.90;;;;;;5016938;28;20568;-67
2022/12/29 01:29:46;;;;;;;3.83;1.90;;;8.50;99.90;;;;;;5017120;28;20457;-67
2022/12/29 01:32:13;;;;;;;2.13;1.53;;;8.60;99.90;;;;;;5017493;28;20480;-66
2022/12/29 01:34:40;;;;;;;2.40;1.83;;;8.60;99.90;;;;;;5018071;28;20471;-67
2022/12/29 01:37:07;;;;;;;3.60;1.73;;;8.60;99.90;;;;;;5019492;28;20936;-67
2022/12/29 01:39:34;;;;;;;2.40;1.87;;;8.60;99.90;;;;;;5017130;28;20773;-67
2022/12/29 01:42:02;;;;;;;2.73;2.00;;;8.60;99.90;;;;;;5017157;28;20457;-67
2022/12/29 01:44:49;;;;;;;2.57;1.90;;;8.60;99.90;;;;;;5017190;28;20797;-66
2022/12/29 01:47:21;;;;;;;2.13;1.90;;;8.60;99.90;;;;;;5016916;28;20484;-67
2022/12/29 01:49:48;;;;;;;3.17;1.90;;;8.70;99.90;;;;;;5017021;28;20789;-68
2022/12/29 01:52:15;;;;;;;2.83;1.70;;;8.60;99.90;;;;;;5016410;28;20461;-68
2022/12/29 01:54:46;;;;;;;2.90;1.90;;;8.60;99.90;;;;;;5016651;28;20548;-68
2022/12/29 01:57:18;;;;;;;2.10;1.80;;;8.60;99.90;;;;;;5016810;28;20456;-68
2022/12/29 01:59:52;;;;;;;3.50;1.97;;;8.60;99.90;;;;;;5020517;28;20469;-68
2022/12/29 02:02:18;;;;;;;3.00;1.90;;;8.60;99.90;;;;;;5018017;28;20437;-66
2022/12/29 02:04:45;;;;;;;3.00;2.17;;;8.60;99.90;;;;;;5017193;28;20467;-67
2022/12/29 02:07:18;;;;;;;2.20;2.00;;;8.60;99.90;;;;;;5016523;28;20485;-67
2022/12/29 02:09:48;;;;;;;2.17;1.90;;;8.60;99.90;;;;;;5016766;28;20441;-66
2022/12/29 02:12:18;;;;;;;3.20;2.10;;;8.60;99.90;;;;;;5016633;28;20548;-67
2022/12/29 02:14:45;;;;;;;2.47;2.27;;;8.60;99.90;;;;;;5016641;28;20467;-67
2022/12/29 02:17:21;;;;;;;1.93;1.73;;;8.50;99.90;;;;;;5016394;28;20461;-67
2022/12/29 02:20:20;;;;;;;4.63;2.30;;;8.50;99.90;;;;;;5016505;28;20445;-66
2022/12/29 02:23:04;;;;;;;2.00;1.80;;;8.50;99.90;;;;;;5017330;28;20801;-67
2022/12/29 02:25:52;;;;;;;2.80;1.80;;;8.40;99.90;;;;;;5016652;28;20441;-68
2022/12/29 02:29:03;;;;;;;3.40;1.90;;;8.40;99.90;;;;;;5016192;28;20507;-68
2022/12/29 02:31:37;;;;;;;2.57;2.13;;;8.40;99.90;;;;;;4969536;28;20452;-67
2022/12/29 02:34:12;;;;;;;1.90;1.80;;;8.50;99.90;;;;;;5016217;28;20445;-67
2022/12/29 02:36:45;;;;;;;2.07;1.80;;;8.50;99.90;;;;;;5015804;28;20840;-66
2022/12/29 02:39:22;;;;;;;2.47;1.87;;;8.60;99.90;;;;;;5016471;28;20433;-68
2022/12/29 02:41:59;;;;;;;3.10;2.20;;;8.60;99.90;;;;;;5016265;28;20443;-68
2022/12/29 02:44:32;;;;;;;4.83;2.00;;;8.70;99.90;;;;;;5015970;28;20833;-68
2022/12/29 02:47:05;;;;;;;2.30;1.87;;;8.70;99.90;;;;;;5033626;28;20479;-67
2022/12/29 02:49:39;;;;;;;3.40;3.10;;;8.80;99.90;;;;;;5035135;28;20439;-68
2022/12/29 02:52:09;;;;;;;2.70;2.10;;;8.80;99.90;;;;;;5035667;28;20440;-68
2022/12/29 02:54:42;;;;;;;4.90;1.80;;;8.90;99.90;;;;;;5035387;28;20745;-67
2022/12/29 02:57:14;;;;;;;5.53;1.70;;;9.00;99.90;;;;;;5035140;28;20436;-67
2022/12/29 02:59:42;;;;;;;2.33;1.93;;;9.10;99.90;;;;;;5035458;28;20756;-68
2022/12/29 03:02:32;;;;;;;2.47;1.90;;;9.10;99.90;;;;;;5035416;28;20466;-68
2022/12/29 03:05:17;;;;;;;5.10;2.13;;;9.20;99.90;;;;;;5015590;28;20539;-67
2022/12/29 03:07:52;;;;;;;2.00;1.50;;;9.30;99.90;;;;;;5034007;28;20952;-67
2022/12/29 03:10:31;;;;;;;2.60;1.73;;;9.30;99.90;;;;;;5035418;28;20454;-66
2022/12/29 03:16:05;;;;;;;1.97;1.60;;;9.40;99.90;;;;;;5035280;28;20436;-68
2022/12/29 03:18:41;;;;;;;1.93;1.60;;;9.40;99.90;;;;;;5034996;28;20435;-65
2022/12/29 03:21:14;;;;;;;1.93;1.47;;;9.50;99.90;;;;;;5034888;28;20545;-67
2022/12/29 03:23:47;;;;;;;2.23;1.97;;;9.50;99.90;;;;;;5035100;28;20454;-66
2022/12/29 03:26:16;;;;;;;3.47;1.80;;;9.60;99.90;;;;;;5034918;28;20575;-68
2022/12/29 03:28:48;;;;;;;1.90;1.60;;;9.60;99.90;;;;;;5034874;28;20813;-67
2022/12/29 03:31:16;;;;;;;1.90;1.40;;;9.60;99.90;;;;;;5034994;28;20466;-68
2022/12/29 03:33:46;;;;;;;2.33;1.80;;;9.70;99.90;;;;;;5034751;28;20486;-67
2022/12/29 03:36:18;;;;;;;2.20;1.50;;;9.70;99.90;;;;;;5035168;28;20559;-69
2022/12/29 03:38:48;;;;;;;3.40;1.70;;;9.60;99.90;;;;;;5035789;28;20492;-67
2022/12/29 03:41:20;;;;;;;4.60;2.13;;;9.70;99.90;;;;;;5036136;28;20470;-66
2022/12/29 03:43:47;;;;;;;2.23;1.90;;;9.70;99.90;;;;;;5035034;28;20440;-67
2022/12/29 03:46:14;;;;;;;5.00;1.90;;;9.70;99.90;;;;;;5034390;28;20604;-66
2022/12/29 03:48:41;;;;;;;2.23;1.77;;;9.80;99.90;;;;;;5034532;28;20483;-68
2022/12/29 03:51:09;;;;;;;2.90;1.70;;;9.80;99.90;;;;;;5034857;28;20460;-68
2022/12/29 03:53:36;;;;;;;2.10;1.80;;;9.80;99.90;;;;;;5034716;28;20500;-66
2022/12/29 03:56:03;;;;;;;2.73;2.20;;;9.80;99.90;;;;;;5035082;28;20534;-68
2022/12/29 03:58:30;;;;;;;2.30;1.90;;;9.80;99.90;;;;;;5034728;28;20452;-67
2022/12/29 04:00:58;;;;;;;2.57;2.37;;;9.90;99.90;;;;;;5034304;28;20460;-70
2022/12/29 04:03:24;;;;;;;1.90;1.67;;;9.90;99.90;;;;;;5034868;28;20460;-67
2022/12/29 04:05:51;;;;;;;2.07;1.50;;;9.90;99.90;;;;;;5034290;28;20925;-68
2022/12/29 04:08:19;;;;;;;2.90;1.80;;;10.00;99.90;;;;;;5034520;28;20491;-67
2022/12/29 04:10:46;;;;;;;3.70;1.70;;;10.00;99.90;;;;;;5034354;28;20546;-68
2022/12/29 04:13:13;;;;;;;3.67;2.13;;;10.00;99.90;;;;;;5034385;28;20456;-68
2022/12/29 04:15:42;;;;;;;2.70;2.00;;;10.00;99.90;;;;;;5034463;28;20462;-68
2022/12/29 04:18:09;;;;;;;2.30;1.83;;;10.00;99.90;;;;;;5035236;28;20760;-68
2022/12/29 04:23:22;;;;;;;2.00;1.60;;;10.10;99.90;;;;;;5038486;28;20419;-67
2022/12/29 04:25:49;;;;;;;4.00;1.90;;;10.10;99.90;;;;;;5038380;28;20460;-67
2022/12/29 04:28:16;;;;;;;1.80;1.53;;;10.10;99.90;;;;;;5037809;28;20479;-68
2022/12/29 04:30:44;;;;;;;1.80;1.60;;;10.10;99.90;;;;;;5039012;28;20455;-68
2022/12/29 04:33:11;;;;;;;2.13;1.93;;;10.10;99.90;;;;;;5038002;28;20942;-68
2022/12/29 04:35:37;;;;;;;2.07;1.70;;;10.10;99.90;;;;;;5038085;28;20787;-67
2022/12/29 04:38:04;;;;;;;2.30;1.80;;;10.10;99.90;;;;;;5038023;28;20548;-68
2022/12/29 04:40:32;;;;;;;1.90;1.70;;;10.10;99.90;;;;;;5038039;28;20455;-67
2022/12/29 04:42:59;;;;;;;2.20;1.73;;;10.10;99.90;;;;;;5038199;28;20470;-68
2022/12/29 04:45:26;;;;;;;3.10;1.80;;;10.10;99.90;;;;;;5037509;28;20956;-67
2022/12/29 04:47:53;;;;;;;2.60;1.60;;;10.10;99.90;;;;;;5037586;28;20440;-69
2022/12/29 04:50:20;;;;;;;3.50;1.80;;;10.10;99.90;;;;;;5037891;28;20459;-68
2022/12/29 04:52:47;;;;;;;1.83;1.37;;;10.10;99.90;;;;;;5037716;28;20456;-67
2022/12/29 04:55:13;;;;;;;2.10;1.90;;;10.10;99.90;;;;;;5037610;28;20456;-68
2022/12/29 04:57:42;;;;;;;1.70;1.47;;;10.10;99.90;;;;;;5037669;28;20466;-67
2022/12/29 05:00:09;;;;;;;1.97;1.60;;;10.10;99.90;;;;;;5037870;28;20451;-68
2022/12/29 05:02:36;;;;;;;2.10;1.40;;;10.10;99.90;;;;;;5038689;28;20459;-69
2022/12/29 05:05:04;;;;;;;1.73;1.40;;;10.10;99.90;;;;;;5037170;28;20495;-67
2022/12/29 05:07:33;;;;;;;1.73;1.63;;;10.10;99.90;;;;;;5037482;28;20829;-67
2022/12/29 05:10:00;;;;;;;2.93;1.67;;;10.20;99.90;;;;;;5037943;28;20533;-67
2022/12/29 05:12:26;;;;;;;2.03;1.83;;;10.20;99.90;;;;;;5038004;28;20535;-67
2022/12/29 05:14:55;;;;;;;2.57;1.40;;;10.20;99.90;;;;;;5037578;28;20539;-68
2022/12/29 05:17:21;;;;;;;8.80;1.90;;;10.20;99.90;;;;;;5037115;28;20862;-68
2022/12/29 05:19:48;;;;;;;2.53;1.90;;;10.20;99.90;;;;;;5037248;28;20487;-68
2022/12/29 05:22:15;;;;;;;2.30;2.00;;;10.20;99.90;;;;;;5037437;28;20555;-68
2022/12/29 05:24:42;;;;;;;1.60;1.50;;;10.30;99.90;;;;;;5037055;28;20765;-68
2022/12/29 05:27:09;;;;;;;1.97;1.77;;;10.20;99.90;;;;;;5037365;28;20466;-68
2022/12/29 05:29:35;;;;;;;4.20;1.60;;;10.20;99.90;;;;;;5035908;28;20494;-68
2022/12/29 05:32:04;;;;;;;2.47;1.43;;;10.30;99.90;;;;;;5036869;28;20873;-67
2022/12/29 05:34:31;;;;;;;1.77;1.67;;;10.30;99.90;;;;;;5037245;28;20456;-68
2022/12/29 05:36:58;;;;;;;2.03;1.83;;;10.30;99.90;;;;;;5037610;28;20459;-69
2022/12/29 05:39:25;;;;;;;3.20;1.63;;;10.30;99.90;;;;;;5036829;28;20463;-68
2022/12/29 05:41:51;;;;;;;2.50;1.90;;;10.30;99.90;;;;;;5036956;28;20973;-68
2022/12/29 05:44:18;;;;;;;2.80;1.60;;;10.40;99.90;;;;;;5037178;28;20456;-68
2022/12/29 05:46:45;;;;;;;2.10;1.80;;;10.40;99.90;;;;;;5036886;28;20516;-68
2022/12/29 05:49:14;;;;;;;2.60;1.43;;;10.40;99.90;;;;;;5036997;28;20527;-67
2022/12/29 05:51:40;;;;;;;3.27;1.50;;;10.50;99.90;;;;;;5036793;28;20456;-68
2022/12/29 05:54:07;;;;;;;2.20;1.40;;;10.50;99.90;;;;;;5037103;28;20552;-68
2022/12/29 05:56:34;;;;;;;2.23;1.80;;;10.50;99.90;;;;;;5036584;28;20551;-68
2022/12/29 05:59:01;;;;;;;2.00;1.80;;;10.50;99.90;;;;;;5036871;28;20826;-68
2022/12/29 06:01:28;;;;;;;2.10;1.70;;;10.60;99.90;;;;;;5036843;28;20547;-68
2022/12/29 06:03:55;;;;;;;3.20;1.70;;;10.50;99.90;;;;;;5037642;28;20487;-68
2022/12/29 06:06:23;;;;;;;2.23;1.60;;;10.60;99.90;;;;;;5036460;28;20547;-68
2022/12/29 06:08:50;;;;;;;2.77;2.43;;;10.60;99.90;;;;;;5037694;28;20538;-67
2022/12/29 06:11:17;;;;;;;2.37;1.90;;;10.70;99.90;;;;;;5038091;28;20510;-67
2022/12/29 06:13:44;;;;;;;1.90;1.60;;;10.70;99.90;;;;;;5037448;28;20547;-68
2022/12/29 06:16:11;;;;;;;2.10;1.80;;;10.70;99.90;;;;;;5036609;28;20995;-67
2022/12/29 06:18:38;;;;;;;3.40;1.60;;;10.70;99.90;;;;;;5037442;28;20476;-69
2022/12/29 06:21:06;;;;;;;1.70;1.53;;;10.70;99.90;;;;;;5038291;28;20590;-68
2022/12/29 06:23:34;;;;;;;2.43;1.50;;;10.80;99.90;;;;;;5037771;28;20514;-68
2022/12/29 06:26:01;;;;;;;2.47;1.80;;;10.80;99.90;;;;;;5036723;28;20515;-68
2022/12/29 06:28:28;;;;;;;2.00;1.70;;;10.90;99.90;;;;;;5036367;28;21032;-68
2022/12/29 06:30:54;;;;;;;2.57;1.37;;;10.90;99.90;;;;;;5036909;28;20543;-66
2022/12/29 06:33:21;;;;;;;1.93;1.53;;;10.90;99.90;;;;;;5036317;28;20844;-68
2022/12/29 06:35:48;;;;;;;5.83;1.67;;;10.90;99.90;;;;;;5036111;28;20499;-67
2022/12/29 06:38:15;;;;;;;1.77;1.50;;;10.90;99.90;;;;;;5035872;28;20538;-67
2022/12/29 06:40:44;;;;;;;2.57;1.67;;;11.00;99.90;;;;;;5035923;28;20547;-67
2022/12/29 06:43:11;;;;;;;4.10;1.60;;;11.00;99.90;;;;;;5035865;28;20839;-67
2022/12/29 06:45:39;;;;;;;3.43;1.60;;;11.00;99.90;;;;;;5035486;28;20531;-69
2022/12/29 06:48:07;;;;;;;1.80;1.40;;;11.00;99.90;;;;;;5035667;28;20471;-67
2022/12/29 06:50:34;;;;;;;2.00;1.50;;;11.00;99.90;;;;;;5035287;28;20522;-66
2022/12/29 06:53:01;;;;;;;1.97;1.57;;;11.00;99.90;;;;;;5034862;28;20538;-67
2022/12/29 06:55:28;;;;;;;2.10;1.53;;;11.00;99.90;;;;;;5035281;28;20488;-67
2022/12/29 06:57:57;;;;;;;2.07;1.60;;;11.00;99.90;;;;;;5035559;28;20459;-66
2022/12/29 07:00:24;;;;;;;1.53;1.43;;;11.10;99.90;;;;;;5035268;28;20483;-68
2022/12/29 07:02:52;;;;;;;2.03;1.40;;;11.10;99.90;;;;;;5035142;28;20518;-66
2022/12/29 07:05:19;;;;;;;2.13;1.60;;;11.00;99.90;;;;;;5034968;28;20598;-67
2022/12/29 07:07:46;;;;;;;2.70;1.50;;;11.00;99.90;;;;;;5034886;28;20543;-67
2022/12/29 07:10:13;;;;;;;2.10;1.70;;;11.00;99.90;;;;;;5035028;28;21055;-67
2022/12/29 07:12:39;;;;;;;1.60;1.40;;;10.90;99.90;;;;;;5034747;28;20563;-67
2022/12/29 07:15:09;;;;;;;1.70;1.30;;;10.90;99.90;;;;;;5035016;28;20503;-68
2022/12/29 07:17:36;;;;;;;3.27;1.30;;;10.90;99.90;;;;;;5034601;28;20541;-67
2022/12/29 07:20:02;;;;;;;2.37;1.40;;;10.90;99.90;;;;;;5035005;28;20534;-68
2022/12/29 07:22:29;;;;;;;3.03;1.40;;;10.90;99.90;;;;;;5035266;28;20451;-68
2022/12/29 07:24:56;;;;;;;1.70;1.57;;;10.90;99.90;;;;;;5035017;28;20534;-67
2022/12/29 07:27:23;;;;;;;1.77;1.30;;;10.90;99.90;;;;;;5034965;28;20553;-68
2022/12/29 07:29:50;;;;;;;1.60;1.50;;;10.80;99.90;;;;;;5034587;28;20563;-67
2022/12/29 07:32:18;;;;;;;1.83;1.60;;;10.90;99.90;;;;;;5034948;28;20542;-67
2022/12/29 07:34:47;;;;;;;2.13;1.20;;;10.80;99.90;;;;;;5034738;28;20848;-66
2022/12/29 07:37:15;;;;;;;3.20;1.50;;;10.80;99.90;;;;;;5034290;28;20466;-67
2022/12/29 07:39:42;;;;;;;3.83;1.30;;;10.80;99.90;;;;;;5034912;28;20470;-68
2022/12/29 07:42:09;;;;;;;3.90;1.60;;;10.80;99.90;;;;;;5034586;28;20795;-67
2022/12/29 07:44:36;;;;;;;1.80;1.50;;;10.70;99.90;;;;;;5034629;28;20456;-67
2022/12/29 07:47:03;;;;;;;3.00;1.50;;;10.70;99.90;;;;;;5034286;28;20983;-68
2022/12/29 07:49:31;;;;;;;2.70;1.60;;;10.80;99.90;;;;;;5034460;28;20549;-67
2022/12/29 07:51:58;;;;;;;3.43;1.50;;;10.80;99.90;;;;;;5034599;28;20784;-68
2022/12/29 07:54:25;;;;;;;1.70;1.43;;;10.80;99.90;;;;;;5041072;28;20456;-66
2022/12/29 07:56:52;;;;;;;1.60;1.40;;;10.80;99.90;;;;;;5040876;28;20455;-66
2022/12/29 07:59:19;;;;;;;2.57;1.50;;;10.80;99.90;;;;;;5040765;28;20462;-67
2022/12/29 08:01:46;;;;;;;1.90;1.50;;;10.80;99.90;;;;;;5040847;28;20554;-68
2022/12/29 08:04:13;;;;;;;1.97;1.60;;;10.90;99.90;;;;;;5041099;28;20528;-67
2022/12/29 08:06:41;;;;;;;1.93;1.30;;;10.90;99.90;;;;;;5041048;28;20467;-68
2022/12/29 08:09:09;;;;;;;2.77;2.17;;;10.90;99.90;;;;;;5040936;28;20475;-68
2022/12/29 08:11:36;;;;;;;1.80;1.40;;;10.90;99.90;;;;;;5041278;28;20459;-65
2022/12/29 08:14:03;;;;;;;1.67;1.27;;;11.00;99.90;;;;;;5041131;28;20533;-67
2022/12/29 08:16:30;;;;;;;1.90;1.50;;;11.00;99.90;;;;;;5040729;28;20465;-67
2022/12/29 08:18:57;;;;;;;2.17;1.57;;;11.00;99.90;;;;;;5040978;28;20460;-67
2022/12/29 08:21:24;;;;;;;1.97;1.30;;;11.00;99.90;;;;;;5040846;28;20862;-67
2022/12/29 08:23:52;;;;;;;2.00;1.60;;;11.00;99.90;;;;;;5040432;28;20579;-68
2022/12/29 08:26:19;;;;;;;2.00;1.50;;;11.10;99.90;;;;;;5040650;28;21002;-68
2022/12/29 08:28:46;;;;;;;3.30;1.50;;;11.10;99.90;;;;;;5040768;28;20508;-68
2022/12/29 08:31:13;;;;;;;2.37;1.37;;;11.10;99.90;;;;;;5040506;28;20786;-68
2022/12/29 08:33:40;;;;;;;2.43;1.40;;;11.10;99.90;;;;;;5040861;28;20792;-67
2022/12/29 08:36:08;;;;;;;2.40;1.40;;;11.00;99.90;;;;;;5040609;28;20570;-68
2022/12/29 08:38:35;;;;;;;2.33;1.50;;;11.00;99.90;;;;;;5040657;28;20772;-68
2022/12/29 08:41:03;;;;;;;2.00;1.40;;;11.10;99.90;;;;;;5040969;28;20451;-66
2022/12/29 08:43:31;;;;;;;2.53;1.50;;;11.10;99.90;;;;;;5040639;28;20866;-68
2022/12/29 08:45:58;;;;;;;2.20;1.70;;;11.10;99.90;;;;;;5040170;28;20487;-67
2022/12/29 08:48:25;;;;;;;1.70;1.60;;;11.10;99.90;;;;;;5040432;28;20455;-68
2022/12/29 08:50:52;;;;;;;3.03;1.70;;;11.10;99.90;;;;;;5040435;28;20490;-67
2022/12/29 08:53:19;;;;;;;3.10;1.80;;;11.10;99.90;;;;;;5042038;28;20623;-67
2022/12/29 08:55:47;;;;;;;3.03;1.90;;;11.20;99.90;;;;;;5041807;28;20502;-67
2022/12/29 08:58:16;;;;;;;4.57;1.70;;;11.20;99.90;;;;;;5042171;28;20459;-66
2022/12/29 09:00:43;;;;;;;2.97;1.70;;;11.20;99.90;;;;;;5041144;28;20452;-67
2022/12/29 09:03:10;;;;;;;4.40;1.73;;;11.30;99.90;;;;;;5040630;28;20927;-68
2022/12/29 09:05:37;;;;;;;4.17;1.90;;;11.30;99.90;;;;;;5037954;28;20456;-69
2022/12/29 09:08:05;;;;;;;1.67;1.30;;;11.30;99.90;;;;;;5037481;28;20829;-67
2022/12/29 09:10:32;;;;;;;1.50;1.30;;;11.40;99.90;;;;;;5036799;28;20515;-68
2022/12/29 09:12:59;;;;;;;2.53;1.70;;;11.30;99.90;;;;;;5037317;28;20460;-68
2022/12/29 09:15:27;;;;;;;2.93;1.43;;;11.40;99.90;;;;;;5037029;28;20466;-67
2022/12/29 09:17:55;;;;;;;2.20;1.60;;;11.40;99.90;;;;;;5036827;28;20945;-66
2022/12/29 09:20:22;;;;;;;2.10;1.50;;;11.30;99.90;;;;;;5037609;28;20792;-67
2022/12/29 09:22:49;;;;;;;4.70;1.50;;;11.40;99.90;;;;;;5037245;28;20460;-68
2022/12/29 09:25:16;;;;;;;4.10;1.37;;;11.40;99.90;;;;;;5037192;28;20466;-69
2022/12/29 09:27:43;;;;;;;1.83;1.37;;;11.40;99.90;;;;;;5037048;28;20486;-69
2022/12/29 09:30:14;;;;;;;2.63;1.47;;;11.40;99.90;;;;;;5037036;28;20480;-69
2022/12/29 09:32:42;;;;;;;1.30;1.07;;;11.50;99.90;;;;;;5037795;28;20861;-68
2022/12/29 09:35:09;;;;;;;3.07;1.70;;;11.50;99.90;;;;;;5037322;28;20507;-68
2022/12/29 09:37:36;;;;;;;2.37;1.50;;;11.50;99.90;;;;;;5037049;28;20466;-67
2022/12/29 09:40:03;;;;;;;2.27;1.10;;;11.60;99.90;;;;;;5037384;28;20460;-68
2022/12/29 09:42:39;;;;;;;1.77;1.53;;;11.60;99.90;;;;;;5037122;28;20458;-68
2022/12/29 09:45:14;;;;;;;2.47;1.43;;;11.60;99.90;;;;;;5036844;28;20444;-68
2022/12/29 09:47:43;;;;;;;2.57;1.27;;;11.70;99.90;;;;;;5036776;28;20443;-68
2022/12/29 09:50:23;;;;;;;3.77;1.60;;;11.70;99.90;;;;;;5028541;28;20494;-68
2022/12/29 09:52:56;;;;;;;1.70;1.30;;;11.70;99.90;;;;;;5036661;28;20448;-67
2022/12/29 09:55:28;;;;;;;2.90;1.53;;;11.80;99.90;;;;;;5036443;28;20444;-67
2022/12/29 09:57:59;;;;;;;2.17;1.10;;;11.80;99.90;;;;;;5036604;28;20770;-67
2022/12/29 10:00:37;;;;;;;1.60;1.17;;;11.90;99.90;;;;;;5036383;28;20897;-69
2022/12/29 10:03:15;;;;;;;1.83;1.30;;;12.00;99.90;;;;;;5036286;28;20535;-69
2022/12/29 10:05:49;;;;;;;1.57;1.17;;;12.00;99.90;;;;;;5036886;28;20520;-68
2022/12/29 10:08:30;;;;;;;3.03;1.70;;;12.10;99.90;;;;;;5036795;28;20443;-68
2022/12/29 10:10:59;;;;;;;1.77;1.30;;;12.00;99.90;;;;;;5036807;28;20471;-67
2022/12/29 10:13:36;;;;;;;2.00;1.43;;;12.10;99.90;;;;;;5037604;28;20456;-68
2022/12/29 10:16:10;;;;;;;1.80;1.50;;;12.10;99.90;;;;;;5035811;28;20440;-69
2022/12/29 10:19:03;;;;;;;2.40;1.47;;;12.00;99.90;;;;;;5035891;28;20480;-67
2022/12/29 10:21:42;;;;;;;1.93;1.50;;;12.10;99.90;;;;;;5036151;28;20436;-67
2022/12/29 10:24:13;;;;;;;2.90;1.50;;;12.10;99.90;;;;;;5035601;28;20443;-66
2022/12/29 10:26:42;;;;;;;3.30;1.63;;;12.00;99.90;;;;;;5036065;28;20463;-67
2022/12/29 10:29:16;;;;;;;1.80;1.20;;;12.10;99.90;;;;;;5036156;28;20562;-68
2022/12/29 10:31:47;;;;;;;2.47;1.43;;;12.10;99.90;;;;;;5035817;28;20479;-66
2022/12/29 10:34:21;;;;;;;1.90;1.40;;;12.20;99.90;;;;;;5035845;28;20903;-68
2022/12/29 10:36:50;;;;;;;4.63;1.60;;;12.30;99.90;;;;;;5036220;28;20807;-68
2022/12/29 10:39:22;;;;;;;1.93;1.40;;;12.40;99.90;;;;;;5035962;28;20452;-67
2022/12/29 10:41:52;;;;;;;1.83;1.27;;;12.50;99.90;;;;;;5036059;28;20451;-68
2022/12/29 10:44:21;;;;;;;2.90;1.50;;;12.60;99.90;;;;;;5036338;28;20510;-68
2022/12/29 10:46:56;;;;;;;1.67;1.40;;;12.70;99.90;;;;;;5035243;28;20488;-68
2022/12/29 10:49:27;;;;;;;2.20;1.50;;;12.80;99.90;;;;;;5035582;28;20530;-68
2022/12/29 10:51:57;;;;;;;2.07;1.40;;;12.80;99.90;;;;;;5035987;28;20498;-68
2022/12/29 10:54:32;;;;;;;2.17;1.30;;;12.90;99.90;;;;;;5035849;28;20466;-68
2022/12/29 10:57:03;;;;;;;1.77;1.10;;;12.90;99.90;;;;;;5035621;28;20444;-68
2022/12/29 10:59:32;;;;;;;2.03;1.40;;;12.90;99.90;;;;;;5035040;28;20445;-67
2022/12/29 11:02:06;;;;;;;2.67;1.53;;;12.90;99.90;;;;;;5035400;28;20462;-67
2022/12/29 11:04:47;;;;;;;5.13;1.10;;;12.90;99.90;;;;;;5035265;28;20856;-68
2022/12/29 11:07:18;;;;;;;2.00;1.20;;;12.90;99.90;;;;;;5035496;28;20510;-67
2022/12/29 11:09:45;;;;;;;1.87;1.07;;;12.90;99.90;;;;;;5035235;28;20472;-68
2022/12/29 11:12:25;;;;;;;2.80;1.30;;;12.90;99.90;;;;;;5035054;28;20456;-68
2022/12/29 11:15:12;;;;;;;1.50;1.10;;;12.90;99.90;;;;;;5034380;28;20908;-68
2022/12/29 11:17:45;;;;;;;3.70;1.33;;;12.80;99.90;;;;;;5034956;28;20447;-68
2022/12/29 11:20:31;;;;;;;2.87;1.13;;;12.80;99.90;;;;;;5035315;28;20436;-68
2022/12/29 11:22:58;;;;;;;2.17;1.27;;;12.80;99.90;;;;;;5034952;28;20523;-69
2022/12/29 11:25:24;;;;;;;1.93;1.10;;;12.90;99.90;;;;;;5035301;28;20456;-68
2022/12/29 11:28:00;;;;;;;2.57;1.20;;;12.90;99.90;;;;;;5034338;28;20847;-68
2022/12/29 11:30:30;;;;;;;1.50;1.30;;;12.90;99.90;;;;;;5034498;28;20483;-68
2022/12/29 11:32:59;;;;;;;2.67;1.07;;;12.90;99.90;;;;;;5034896;28;20801;-69
2022/12/29 11:35:36;;;;;;;3.27;1.33;;;12.90;99.90;;;;;;5034535;28;20456;-67
2022/12/29 11:38:04;;;;;;;2.30;1.40;;;12.90;99.90;;;;;;5034637;28;20959;-68
2022/12/29 11:40:33;;;;;;;2.63;1.60;;;12.90;99.90;;;;;;5035152;28;20474;-67
2022/12/29 11:43:03;;;;;;;1.83;1.23;;;12.80;99.90;;;;;;5034777;28;20471;-68
2022/12/29 11:45:34;;;;;;;1.90;1.10;;;12.80;99.90;;;;;;5034259;28;20566;-67
2022/12/29 11:48:07;;;;;;;1.40;1.10;;;12.80;99.90;;;;;;5034154;28;20563;-68
2022/12/29 11:50:39;;;;;;;1.77;1.10;;;12.80;99.90;;;;;;5034657;28;20795;-68
2022/12/29 11:53:14;;;;;;;1.23;1.03;;;12.70;99.90;;;;;;5034434;28;20444;-67
2022/12/29 11:55:51;;;;;;;2.00;1.10;;;12.60;99.90;;;;;;5034105;28;20931;-68
2022/12/29 11:58:18;;;;;;;2.30;1.17;;;12.60;99.90;;;;;;5034711;28;20454;-66
2022/12/29 12:00:46;;;;;;;1.73;1.00;;;12.50;99.90;;;;;;5034658;28;20456;-67
2022/12/29 12:03:17;;;;;;;1.80;1.10;;;12.50;99.90;;;;;;5034854;28;20466;-67
2022/12/29 12:05:52;;;;;;;1.77;0.93;;;12.50;99.90;;;;;;5034812;28;20455;-67
2022/12/29 12:08:24;;;;;;;2.33;1.00;;;12.30;99.90;;;;;;5035902;28;20440;-66
2022/12/29 12:10:56;;;;;;;1.83;1.07;;;12.20;99.90;;;;;;5036684;28;20482;-68
2022/12/29 12:13:29;;;;;;;1.80;1.10;;;12.00;99.90;;;;;;5035738;28;20531;-68
2022/12/29 12:16:03;;;;;;;1.30;0.90;;;11.70;99.90;;;;;;5036595;28;20445;-67
2022/12/29 12:18:40;;;;;;;1.43;0.90;;;11.50;99.90;;;;;;5036555;28;20447;-67
2022/12/29 12:21:16;;;;;;;1.40;0.90;;;11.30;99.90;;;;;;5036732;28;20440;-67
2022/12/29 12:23:57;;;;;;;1.40;0.90;;;11.20;99.90;;;;;;5036650;28;20814;-68
2022/12/29 12:26:33;;;;;;;2.43;1.00;;;11.00;99.90;;;;;;5036855;28;20511;-67
2022/12/29 12:29:04;;;;;;;2.77;1.10;;;10.90;99.90;;;;;;5036064;28;20448;-68
2022/12/29 12:31:44;;;;;;;1.20;0.90;;;10.80;99.90;;;;;;5035948;28;20563;-67
2022/12/29 12:34:17;;;;;;;2.03;0.87;;;10.80;99.90;;;;;;5037406;28;20535;-68
2022/12/29 12:37:16;;;;;;;1.10;0.70;;;10.80;99.90;;;;;;5037504;28;20952;-68
2022/12/29 12:39:56;;;;;;;3.63;0.80;;;10.70;99.90;;;;;;5036957;28;20440;-66
2022/12/29 12:42:39;;;;;;;3.83;1.13;;;10.70;99.90;;;;;;5038698;28;20446;-68
2022/12/29 12:45:28;;;;;;;2.87;0.90;;;10.80;99.90;;;;;;5038341;28;20555;-67
2022/12/29 12:48:07;;;;;;;1.30;0.80;;;10.80;99.90;;;;;;5038366;28;20446;-68
2022/12/29 12:50:48;;;;;;;1.40;0.90;;;10.80;99.90;;;;;;5038190;28;20954;-68
2022/12/29 12:53:41;;;;;;;1.17;0.80;;;10.90;99.90;;;;;;5038615;28;20548;-67
2022/12/29 12:56:28;;;;;;;1.50;0.90;;;10.90;99.90;;;;;;5038896;28;20925;-67
2022/12/29 12:59:00;;;;;;;2.90;0.70;;;10.90;99.90;;;;;;5038654;28;20807;-68
2022/12/29 13:01:39;;;;;;;1.33;0.97;;;11.10;99.90;;;;;;5038330;28;20450;-67
2022/12/29 13:04:36;;;;;;;1.67;0.80;;;11.40;99.90;;;;;;5038369;28;20912;-68
2022/12/29 13:07:15;;;;;;;1.87;0.90;;;11.80;99.90;;;;;;5038964;28;20463;-67
2022/12/29 13:10:06;;;;;;;2.07;0.80;;;12.40;99.90;;;;;;5038690;28;20805;-68
2022/12/29 13:12:39;;;;;;;1.40;0.90;;;13.00;99.90;;;;;;5039224;28;20968;-67
2022/12/29 13:15:19;;;;;;;1.70;0.80;;;13.50;99.90;;;;;;5038993;28;20499;-67
2022/12/29 13:17:51;;;;;;;1.93;0.80;;;13.90;99.90;;;;;;5037541;28;20467;-67
2022/12/29 13:20:29;;;;;;;1.27;0.70;;;14.30;99.90;;;;;;5038114;28;20456;-68
2022/12/29 13:23:02;;;;;;;2.33;1.30;;;14.60;99.90;;;;;;5037325;28;20467;-68
2022/12/29 13:25:38;;;;;;;2.33;1.00;;;14.80;99.90;;;;;;5037565;28;20455;-67
2022/12/29 13:28:14;;;;;;;1.10;0.63;;;14.80;99.90;;;;;;5037539;28;20444;-66
2022/12/29 13:30:46;;;;;;;2.40;0.93;;;14.70;99.90;;;;;;5037491;28;20530;-68
2022/12/29 13:33:21;;;;;;;1.53;0.90;;;14.30;99.90;;;;;;5037620;28;20444;-69
2022/12/29 13:35:59;;;;;;;2.47;1.10;;;13.80;99.90;;;;;;5037137;28;20466;-68
2022/12/29 13:38:33;;;;;;;1.50;1.10;;;13.20;99.90;;;;;;5037111;28;20471;-67
2022/12/29 13:41:05;;;;;;;1.50;1.00;;;12.80;99.90;;;;;;5036530;28;20440;-68
2022/12/29 13:43:35;;;;;;;1.50;1.10;;;12.50;99.90;;;;;;5036993;28;20480;-66